createdAt,value
2019-02-22T00:00:24.601Z,5.73
2019-02-22T00:05:28.365Z,4.33
2019-02-22T00:10:32.112Z,5.27
2019-02-22T00:15:36.420Z,5.47
2019-02-22T00:20:41.267Z,5.33
2019-02-22T00:25:48.305Z,5.53
2019-02-22T00:30:52.047Z,5.60
2019-02-22T00:35:55.909Z,7.67
2019-02-22T00:41:00.017Z,5.60
2019-02-22T00:46:03.865Z,5.43
2019-02-22T00:51:07.631Z,5.87
2019-02-22T00:56:11.519Z,5.63
2019-02-22T01:01:15.267Z,4.43
2019-02-22T01:06:18.954Z,5.00
2019-02-22T01:11:22.741Z,4.90
2019-02-22T01:16:26.518Z,3.90
2019-02-22T01:21:30.584Z,6.03
2019-02-22T01:26:34.290Z,3.70
2019-02-22T01:31:37.976Z,7.20
2019-02-22T01:36:41.954Z,4.20
2019-02-22T01:41:47.097Z,3.77
2019-02-22T01:46:52.528Z,4.23
2019-02-22T01:51:56.301Z,4.50
2019-02-22T01:57:00.099Z,7.47
2019-02-22T02:02:03.782Z,4.80
2019-02-22T02:07:07.475Z,6.10
2019-02-22T02:12:11.166Z,4.00
2019-02-22T02:17:14.880Z,3.43
2019-02-22T02:22:37.855Z,4.27
2019-02-22T02:27:44.271Z,3.30
2019-02-22T02:32:47.995Z,5.23
2019-02-22T02:37:51.710Z,4.00
2019-02-22T02:42:55.931Z,3.33
2019-02-22T02:47:59.653Z,3.73
2019-02-22T02:53:03.392Z,4.40
2019-02-22T02:58:07.117Z,3.20
2019-02-22T03:03:10.814Z,3.27
2019-02-22T03:08:14.783Z,4.07
2019-02-22T03:13:18.584Z,3.00
2019-02-22T03:18:22.286Z,3.80
2019-02-22T03:23:26.230Z,3.10
2019-02-22T03:28:30.976Z,5.10
2019-02-22T03:33:34.665Z,3.20
2019-02-22T03:38:38.408Z,4.10
2019-02-22T03:43:42.127Z,3.43
2019-02-22T03:48:45.848Z,4.27
2019-02-22T03:53:57.515Z,3.50
2019-02-22T03:59:01.076Z,3.23
2019-02-22T04:04:04.873Z,2.70
2019-02-22T04:09:11.567Z,3.20
2019-02-22T04:14:16.588Z,2.60
2019-02-22T04:19:20.277Z,3.00
2019-02-22T04:24:24.102Z,3.80
2019-02-22T04:29:29.180Z,3.10
2019-02-22T04:34:32.900Z,2.43
2019-02-22T04:39:36.636Z,3.20
2019-02-22T04:44:40.686Z,2.80
2019-02-22T04:49:44.354Z,2.50
2019-02-22T04:54:48.616Z,2.80
2019-02-22T04:59:52.585Z,2.60
2019-02-22T05:04:56.337Z,3.50
2019-02-22T05:10:00.100Z,2.60
2019-02-22T05:15:12.591Z,2.47
2019-02-22T05:20:09.817Z,3.03
2019-02-22T05:25:16.982Z,3.63
2019-02-22T05:30:20.763Z,2.70
2019-02-22T05:35:24.455Z,2.73
2019-02-22T05:40:30.105Z,4.10
2019-02-22T05:45:33.792Z,8.03
2019-02-22T05:50:38.210Z,8.30
2019-02-22T05:55:44.318Z,4.50
2019-02-22T06:00:47.787Z,4.53
2019-02-22T06:05:51.580Z,5.83
2019-02-22T06:10:55.517Z,6.30
2019-02-22T06:15:59.679Z,3.50
2019-02-22T06:21:03.539Z,3.43
2019-02-22T06:26:10.183Z,4.73
2019-02-22T06:31:14.377Z,5.07
2019-02-22T06:36:18.439Z,2.33
2019-02-22T06:41:22.229Z,3.03
2019-02-22T06:46:45.522Z,3.57
2019-02-22T06:51:50.647Z,5.93
2019-02-22T06:56:54.987Z,7.87
2019-02-22T07:01:58.748Z,4.73
2019-02-22T07:07:02.750Z,4.60
2019-02-22T07:12:10.911Z,5.73
2019-02-22T07:17:14.722Z,4.87
2019-02-22T07:22:18.586Z,5.33
2019-02-22T07:27:22.729Z,6.90
2019-02-22T07:32:26.574Z,4.90
2019-02-22T07:37:30.391Z,5.57
2019-02-22T07:42:34.374Z,6.30
2019-02-22T07:47:38.111Z,7.47
2019-02-22T07:52:44.562Z,6.57
2019-02-22T07:57:47.703Z,9.83
2019-02-22T08:02:51.523Z,4.53
2019-02-22T08:07:58.216Z,4.37
2019-02-22T08:13:02.097Z,5.40
2019-02-22T08:18:05.806Z,10.17
2019-02-22T08:23:28.858Z,6.63
2019-02-22T08:28:32.624Z,6.03
2019-02-22T08:33:36.384Z,6.67
2019-02-22T08:38:40.097Z,7.50
2019-02-22T08:43:44.123Z,7.77
2019-02-22T08:48:48.046Z,6.53
2019-02-22T08:53:51.985Z,7.43
2019-02-22T08:58:55.816Z,5.73
2019-02-22T09:04:01.432Z,5.40
2019-02-22T09:09:06.802Z,4.03
2019-02-22T09:14:10.527Z,3.73
2019-02-22T09:19:17.278Z,4.30
2019-02-22T09:24:21.253Z,8.93
2019-02-22T09:29:25.007Z,3.80
2019-02-22T09:34:28.833Z,5.27
2019-02-22T09:39:32.560Z,5.83
2019-02-22T09:44:36.312Z,4.40
2019-02-22T09:49:40.393Z,5.50
2019-02-22T09:54:44.362Z,3.90
2019-02-22T09:59:48.200Z,3.20
2019-02-22T10:04:55.493Z,5.67
2019-02-22T10:09:57.889Z,6.60
2019-02-22T10:15:01.714Z,7.43
2019-02-22T10:20:05.896Z,3.23
2019-02-22T10:25:10.419Z,2.70
2019-02-22T10:30:14.325Z,5.97
2019-02-22T10:35:18.229Z,2.63
2019-02-22T10:40:22.036Z,3.53
2019-02-22T10:45:25.809Z,3.60
2019-02-22T10:50:29.599Z,3.57
2019-02-22T10:55:33.277Z,2.23
2019-02-22T11:00:37.177Z,3.60
2019-02-22T11:05:40.863Z,3.20
2019-02-22T11:10:44.857Z,3.93
2019-02-22T11:15:48.589Z,3.17
2019-02-22T11:20:52.328Z,4.73
2019-02-22T11:25:57.962Z,3.37
2019-02-22T11:31:01.736Z,3.23
2019-02-22T11:36:05.654Z,4.43
2019-02-22T11:41:09.702Z,3.20
2019-02-22T11:46:16.594Z,4.07
2019-02-22T11:51:21.003Z,5.43
2019-02-22T11:56:27.669Z,3.93
2019-02-22T12:01:34.531Z,3.70
2019-02-22T12:06:38.437Z,3.37
2019-02-22T12:11:44.259Z,3.40
2019-02-22T12:16:48.094Z,4.33
2019-02-22T12:21:51.993Z,4.00
2019-02-22T12:27:01.004Z,3.47
2019-02-22T12:32:04.917Z,4.03
2019-02-22T12:37:09.465Z,3.63
2019-02-22T12:42:13.314Z,4.70
2019-02-22T12:47:17.192Z,3.30
2019-02-22T12:52:23.282Z,4.13
2019-02-22T12:57:27.012Z,5.30
2019-02-22T13:02:42.857Z,5.23
2019-02-22T13:07:47.391Z,2.77
2019-02-22T13:12:52.246Z,5.07
2019-02-22T13:17:57.308Z,3.10
2019-02-22T13:23:03.374Z,4.37
2019-02-22T13:28:07.156Z,3.00
2019-02-22T13:33:10.949Z,4.13
2019-02-22T13:38:17.875Z,4.17
2019-02-22T13:43:23.475Z,4.13
2019-02-22T13:48:46.527Z,3.27
2019-02-22T13:53:50.363Z,4.33
2019-02-22T13:58:54.299Z,3.47
2019-02-22T14:03:58.427Z,4.57
2019-02-22T14:09:02.253Z,5.03
2019-02-22T14:14:06.249Z,3.60
2019-02-22T14:19:10.261Z,3.83
2019-02-22T14:24:14.482Z,4.80
2019-02-22T14:29:18.218Z,4.30
2019-02-22T14:34:22.178Z,4.30
2019-02-22T14:39:27.830Z,4.47
2019-02-22T14:44:31.735Z,4.27
2019-02-22T14:49:35.555Z,4.57
2019-02-22T14:54:43.150Z,4.23
2019-02-22T14:59:47.920Z,3.33
2019-02-22T15:04:51.853Z,3.40
2019-02-22T15:09:55.653Z,4.20
2019-02-22T15:14:59.453Z,2.70
2019-02-22T15:20:03.534Z,6.80
2019-02-22T15:25:08.840Z,3.80
2019-02-22T15:30:12.694Z,5.63
2019-02-22T15:35:17.324Z,3.20
2019-02-22T15:40:21.058Z,4.80
2019-02-22T15:45:25.063Z,3.63
2019-02-22T15:50:28.854Z,3.27
2019-02-22T15:55:32.608Z,3.73
2019-02-22T16:00:36.425Z,3.90
2019-02-22T16:05:42.332Z,3.60
2019-02-22T16:10:47.065Z,3.00
2019-02-22T16:15:51.033Z,2.93
2019-02-22T16:20:54.744Z,4.40
2019-02-22T16:25:58.420Z,3.13
2019-02-22T16:31:02.244Z,3.97
2019-02-22T16:36:07.223Z,3.60
2019-02-22T16:41:11.210Z,3.47
2019-02-22T16:46:15.326Z,3.33
2019-02-22T16:51:19.161Z,3.90
2019-02-22T16:56:25.108Z,3.17
2019-02-22T17:01:28.966Z,3.00
2019-02-22T17:06:33.055Z,4.10
2019-02-22T17:11:37.400Z,4.50
2019-02-22T17:16:45.892Z,3.50
2019-02-22T17:21:46.604Z,3.87
2019-02-22T17:26:50.516Z,3.20
2019-02-22T17:32:00.144Z,5.80
2019-02-22T17:37:04.202Z,4.40
2019-02-22T17:42:10.512Z,3.70
2019-02-22T17:47:16.069Z,5.27
2019-02-22T17:52:19.812Z,5.63
2019-02-22T17:57:23.520Z,4.13
2019-02-22T18:02:29.594Z,4.40
2019-02-22T18:07:37.588Z,4.33
2019-02-22T18:12:39.226Z,4.63
2019-02-22T18:17:43.448Z,4.93
2019-02-22T18:22:51.128Z,5.70
2019-02-22T18:27:54.811Z,6.60
2019-02-22T18:32:58.935Z,4.10
2019-02-22T18:38:02.793Z,5.23
2019-02-22T18:43:06.866Z,6.07
2019-02-22T18:48:10.751Z,4.37
2019-02-22T18:53:14.495Z,7.60
2019-02-22T18:58:18.279Z,6.23
2019-02-22T19:03:22.044Z,5.60
2019-02-22T19:08:32.434Z,5.37
2019-02-22T19:13:31.919Z,7.87
2019-02-22T19:18:37.346Z,7.77
2019-02-22T19:23:41.213Z,7.57
2019-02-22T19:28:44.936Z,10.63
2019-02-22T19:33:49.970Z,5.70
2019-02-22T19:38:54.047Z,6.07
2019-02-22T19:43:59.751Z,8.70
2019-02-22T19:49:03.997Z,6.43
2019-02-22T19:54:07.823Z,6.33
2019-02-22T19:59:13.441Z,6.40
2019-02-22T20:04:17.874Z,8.63
2019-02-22T20:09:21.686Z,6.90
2019-02-22T20:14:25.471Z,7.83
2019-02-22T20:19:29.481Z,8.30
2019-02-22T20:24:33.629Z,6.90
2019-02-22T20:29:38.779Z,6.33
2019-02-22T20:34:42.847Z,5.97
2019-02-22T20:39:47.016Z,6.57
2019-02-22T20:44:51.826Z,6.17
2019-02-22T20:49:56.287Z,6.63
2019-02-22T20:55:00.316Z,5.33
2019-02-22T21:00:04.762Z,5.43
2019-02-22T21:05:10.938Z,7.47
2019-02-22T21:10:17.434Z,6.27
2019-02-22T21:15:21.438Z,6.50
2019-02-22T21:20:32.111Z,9.20
2019-02-22T21:25:35.942Z,6.53
2019-02-22T21:30:39.655Z,6.50
2019-02-22T21:35:43.381Z,5.13
2019-02-22T21:40:48.238Z,5.03
2019-02-22T21:45:52.219Z,6.53
2019-02-22T21:50:57.083Z,6.50
2019-02-22T21:56:00.857Z,6.70
2019-02-22T22:01:04.648Z,6.80
2019-02-22T22:06:08.569Z,7.63
2019-02-22T22:11:12.317Z,7.93
2019-02-22T22:16:16.614Z,9.13
2019-02-22T22:21:20.450Z,9.70
2019-02-22T22:26:24.277Z,11.07
2019-02-22T22:31:30.767Z,9.23
2019-02-22T22:36:33.664Z,11.43
2019-02-22T22:41:37.672Z,10.80
2019-02-22T22:46:41.475Z,12.30
2019-02-22T22:51:45.276Z,12.17
2019-02-22T22:56:48.976Z,14.87
2019-02-22T23:01:52.760Z,12.53
2019-02-22T23:06:56.573Z,12.87
2019-02-22T23:12:00.530Z,12.30
2019-02-22T23:17:04.871Z,14.07
2019-02-22T23:22:08.652Z,11.50
2019-02-22T23:27:14.563Z,11.50
2019-02-22T23:32:18.348Z,12.93
2019-02-22T23:37:22.235Z,12.77
2019-02-22T23:42:28.836Z,15.80
2019-02-22T23:47:32.687Z,14.80
2019-02-22T23:52:36.446Z,15.97
2019-02-22T23:57:40.173Z,14.60
